Time;durP1;ratioP1;P1;durP2;ratioP2;P2;SDS_P1;SDS_P2;PMS_P1;PMS_P2;Temp;Humidity;BMP_temperature;BMP_pressure;BME280_temperature;BME280_humidity;BME280_pressure;Samples;Min_cycle;Max_cycle;Signal;HPM_P1;HPM_P2
2023/02/21 02:15:58;;;;;;;;;;;7.20;99.90;;;;;;5046527;28;19925;-70
2023/02/21 02:18:49;;;;;;;;;;;7.20;99.90;;;;;;5052485;28;19925;-71
2023/02/21 02:21:33;;;;;;;;;;;7.20;99.90;;;;;;5038276;28;19971;-71
2023/02/21 02:24:08;;;;;;;;;;;7.20;99.90;;;;;;5034891;28;20008;-71
2023/02/21 02:26:59;;;;;;;;;;;7.20;99.90;;;;;;5048698;28;20444;-71
2023/02/21 02:29:40;;;;;;;;;;;7.20;99.90;;;;;;5050596;28;19924;-71
2023/02/21 02:32:22;;;;;;;;;;;7.20;99.90;;;;;;5044443;28;19929;-70
2023/02/21 02:34:53;;;;;;;;;;;7.10;99.90;;;;;;5036552;28;19983;-71
2023/02/21 02:37:23;;;;;;;;;;;7.10;99.90;;;;;;5046637;28;19925;-71
2023/02/21 02:39:55;;;;;;;;;;;7.10;99.90;;;;;;5047461;28;19994;-71
2023/02/21 02:42:30;;;;;;;;;;;7.10;99.90;;;;;;5052256;28;19973;-70
2023/02/21 02:44:59;;;;;;;;;;;7.10;99.90;;;;;;5050233;28;19929;-70
2023/02/21 02:47:29;;;;;;;;;;;7.10;99.90;;;;;;5051981;28;20016;-72
2023/02/21 02:49:59;;;;;;;;;;;7.00;99.90;;;;;;5046942;28;19948;-71
2023/02/21 02:52:26;;;;;;;;;;;7.00;99.90;;;;;;5048123;28;19968;-70
2023/02/21 02:54:58;;;;;;;;;;;7.10;99.90;;;;;;5048290;28;20020;-72
2023/02/21 02:57:24;;;;;;;;;;;7.00;99.90;;;;;;5050510;28;19924;-70
2023/02/21 02:59:51;;;;;;;;;;;7.00;99.90;;;;;;5049956;28;19929;-70
2023/02/21 03:02:28;;;;;;;;;;;7.00;99.90;;;;;;5051326;28;20391;-70
2023/02/21 03:05:05;;;;;;;;;;;7.00;99.90;;;;;;5046762;28;20310;-71
2023/02/21 03:07:37;;;;;;;;;;;7.00;99.90;;;;;;5046940;28;20364;-71
2023/02/21 03:10:14;;;;;;;;;;;7.00;99.90;;;;;;5045717;28;19925;-71
2023/02/21 03:12:45;;;;;;;;;;;7.00;99.90;;;;;;5033816;28;19986;-71
2023/02/21 03:15:16;;;;;;;;;;;7.00;99.90;;;;;;5034183;28;20361;-71
2023/02/21 03:17:43;;;;;;;;;;;7.00;99.90;;;;;;5048925;28;19925;-70
2023/02/21 03:20:12;;;;;;;;;;;6.90;99.90;;;;;;5048864;28;20016;-71
2023/02/21 03:22:40;;;;;;;;;;;7.00;99.90;;;;;;5051381;28;19931;-70
2023/02/21 03:25:07;;;;;;;;;;;7.00;99.90;;;;;;5045526;28;19925;-70
2023/02/21 03:27:35;;;;;;;;;;;6.90;99.90;;;;;;5046267;28;19924;-70
2023/02/21 03:30:03;;;;;;;;;;;6.90;99.90;;;;;;5046144;28;20035;-70
2023/02/21 03:34:57;;;;;;;;;;;6.90;99.90;;;;;;5046608;28;19971;-70
2023/02/21 03:37:30;;;;;;;;;;;7.00;99.90;;;;;;5045402;28;20269;-70
2023/02/21 03:39:57;;;;;;;;;;;7.00;99.90;;;;;;5046450;28;19935;-71
2023/02/21 03:42:24;;;;;;;;;;;7.00;99.90;;;;;;5050814;28;19925;-70
2023/02/21 03:44:50;;;;;;;;;;;7.00;99.90;;;;;;5048845;28;20396;-70
2023/02/21 03:47:17;;;;;;;;;;;7.00;99.90;;;;;;5051137;28;20344;-71
2023/02/21 03:49:44;;;;;;;;;;;6.90;99.90;;;;;;5041184;28;19939;-71
2023/02/21 03:52:12;;;;;;;;;;;7.00;99.90;;;;;;5040955;28;19925;-70
2023/02/21 03:54:40;;;;;;;;;;;7.00;99.90;;;;;;5039466;28;19928;-70
2023/02/21 03:57:07;;;;;;;;;;;7.00;99.90;;;;;;5046410;28;20000;-70
2023/02/21 03:59:33;;;;;;;;;;;7.00;99.90;;;;;;5049722;28;19929;-70
2023/02/21 04:02:00;;;;;;;;;;;7.00;99.90;;;;;;5031646;28;20380;-69
2023/02/21 04:04:27;;;;;;;;;;;6.90;99.90;;;;;;5031039;28;19971;-71
2023/02/21 04:06:53;;;;;;;;;;;6.90;99.90;;;;;;5031000;28;19971;-69
2023/02/21 04:09:20;;;;;;;;;;;6.90;99.90;;;;;;5040727;28;19925;-70
2023/02/21 04:11:48;;;;;;;;;;;6.90;99.90;;;;;;5047324;28;19931;-70
2023/02/21 04:14:15;;;;;;;;;;;6.90;99.90;;;;;;5050650;28;20008;-70
2023/02/21 04:16:41;;;;;;;;;;;6.90;99.90;;;;;;5044867;28;19929;-70
2023/02/21 04:19:11;;;;;;;;;;;6.90;99.90;;;;;;5042777;28;19929;-70
2023/02/21 04:21:38;;;;;;;;;;;6.90;99.90;;;;;;5049654;28;19932;-70
2023/02/21 04:24:05;;;;;;;;;;;6.90;99.90;;;;;;5049425;28;20012;-70
2023/02/21 04:26:33;;;;;;;;;;;6.90;99.90;;;;;;5037043;28;19978;-70
2023/02/21 04:29:02;;;;;;;;;;;6.90;99.90;;;;;;5048864;28;20019;-70
2023/02/21 04:31:28;;;;;;;;;;;6.90;99.90;;;;;;5051031;28;20435;-70
2023/02/21 04:33:55;;;;;;;;;;;6.90;99.90;;;;;;5054663;28;19960;-71
2023/02/21 04:36:22;;;;;;;;;;;6.90;99.90;;;;;;5040329;28;19925;-70
2023/02/21 04:38:49;;;;;;;;;;;6.90;99.90;;;;;;5050785;28;19975;-70
2023/02/21 04:41:16;;;;;;;;;;;6.90;99.90;;;;;;5048140;28;19925;-70
2023/02/21 04:43:43;;;;;;;;;;;6.80;99.90;;;;;;5054610;28;20380;-70
2023/02/21 04:46:14;;;;;;;;;;;6.80;99.90;;;;;;5047926;28;20380;-70
2023/02/21 04:48:41;;;;;;;;;;;6.70;99.90;;;;;;5053799;28;19925;-69
2023/02/21 04:51:08;;;;;;;;;;;6.80;99.90;;;;;;5052887;28;19929;-70
2023/02/21 04:53:34;;;;;;;;;;;6.80;99.90;;;;;;5052286;28;20024;-71
2023/02/21 04:56:01;;;;;;;;;;;6.90;99.90;;;;;;5040413;28;19925;-69
2023/02/21 04:58:28;;;;;;;;;;;6.90;99.90;;;;;;5036530;28;19925;-70
2023/02/21 05:00:54;;;;;;;;;;;6.90;99.90;;;;;;5042357;28;20020;-69
2023/02/21 05:03:23;;;;;;;;;;;6.90;99.90;;;;;;5051660;28;19976;-70
2023/02/21 05:05:50;;;;;;;;;;;6.90;99.90;;;;;;5039916;28;19925;-69
2023/02/21 05:08:16;;;;;;;;;;;6.90;99.90;;;;;;5047435;28;20024;-70
2023/02/21 05:10:43;;;;;;;;;;;6.90;99.90;;;;;;5050106;28;20056;-71
2023/02/21 05:13:10;;;;;;;;;;;6.90;99.90;;;;;;5052803;28;19925;-71
2023/02/21 05:15:37;;;;;;;;;;;6.90;99.90;;;;;;5051425;28;20023;-70
2023/02/21 05:18:03;;;;;;;;;;;6.80;99.90;;;;;;5050797;28;20019;-70
2023/02/21 05:20:31;;;;;;;;;;;6.80;99.90;;;;;;5047988;28;19978;-72
2023/02/21 05:22:58;;;;;;;;;;;6.80;99.90;;;;;;5051366;28;19933;-69
2023/02/21 05:25:25;;;;;;;;;;;6.90;99.90;;;;;;5052448;28;20368;-71
2023/02/21 05:27:52;;;;;;;;;;;6.90;99.90;;;;;;5052959;28;20483;-70
2023/02/21 05:30:21;;;;;;;;;;;6.90;99.90;;;;;;5041931;28;19931;-70
2023/02/21 05:32:47;;;;;;;;;;;6.80;99.90;;;;;;5050142;28;19992;-70
2023/02/21 05:35:14;;;;;;;;;;;6.90;99.90;;;;;;5049790;28;19924;-71
2023/02/21 05:37:42;;;;;;;;;;;6.80;99.90;;;;;;5045769;28;20587;-70
2023/02/21 05:40:10;;;;;;;;;;;6.90;99.90;;;;;;5052041;28;19931;-71
2023/02/21 05:42:37;;;;;;;;;;;6.80;99.90;;;;;;5039500;28;19931;-71
2023/02/21 05:45:05;;;;;;;;;;;6.90;99.90;;;;;;5051082;28;19933;-69
2023/02/21 05:47:33;;;;;;;;;;;6.90;99.90;;;;;;5050135;28;19971;-68
2023/02/21 05:50:00;;;;;;;;;;;6.90;99.90;;;;;;5052668;28;20437;-68
2023/02/21 05:52:27;;;;;;;;;;;6.90;99.90;;;;;;5047620;28;20295;-68
2023/02/21 05:54:55;;;;;;;;;;;6.90;99.90;;;;;;5050187;28;20353;-67
2023/02/21 05:57:22;;;;;;;;;;;6.90;99.90;;;;;;5048985;28;19933;-68
2023/02/21 05:59:48;;;;;;;;;;;6.90;99.90;;;;;;5053223;28;19932;-69
2023/02/21 06:02:15;;;;;;;;;;;6.90;99.90;;;;;;5048202;28;20016;-68
2023/02/21 06:04:42;;;;;;;;;;;6.90;99.90;;;;;;5051404;28;19929;-69
2023/02/21 06:07:08;;;;;;;;;;;6.80;99.90;;;;;;5037679;28;19924;-70
2023/02/21 06:09:35;;;;;;;;;;;6.80;99.90;;;;;;5052947;28;19928;-69
2023/02/21 06:12:03;;;;;;;;;;;6.90;99.90;;;;;;5048000;28;20305;-68
2023/02/21 06:14:30;;;;;;;;;;;6.80;99.90;;;;;;5052579;28;20129;-69
2023/02/21 06:16:57;;;;;;;;;;;6.80;99.90;;;;;;5046670;28;19987;-69
2023/02/21 06:19:23;;;;;;;;;;;6.80;99.90;;;;;;5049279;28;19964;-69
2023/02/21 06:21:50;;;;;;;;;;;6.80;99.90;;;;;;5046582;28;20291;-69
2023/02/21 06:24:17;;;;;;;;;;;6.80;99.90;;;;;;5050667;28;19932;-68
2023/02/21 06:26:44;;;;;;;;;;;6.80;99.90;;;;;;5049997;28;19957;-68
2023/02/21 06:29:12;;;;;;;;;;;6.80;99.90;;;;;;5052740;28;20004;-69
2023/02/21 06:31:39;;;;;;;;;;;6.80;99.90;;;;;;5051487;28;19931;-68
2023/02/21 06:34:05;;;;;;;;;;;6.70;99.90;;;;;;5051816;28;20404;-70
2023/02/21 06:36:32;;;;;;;;;;;6.70;99.90;;;;;;5050182;28;19991;-69
2023/02/21 06:38:59;;;;;;;;;;;6.70;99.90;;;;;;5041938;28;19976;-68
2023/02/21 06:41:27;;;;;;;;;;;6.70;99.90;;;;;;5038509;28;20023;-68
2023/02/21 06:43:54;;;;;;;;;;;6.80;99.90;;;;;;5050797;28;20291;-69
2023/02/21 06:46:23;;;;;;;;;;;6.70;99.90;;;;;;5048960;28;19960;-68
2023/02/21 06:48:50;;;;;;;;;;;6.70;99.90;;;;;;5050458;28;19975;-69
2023/02/21 06:51:19;;;;;;;;;;;6.70;99.90;;;;;;5051501;28;19924;-68
2023/02/21 06:53:49;;;;;;;;;;;6.70;99.90;;;;;;5051972;28;20366;-69
2023/02/21 06:56:15;;;;;;;;;;;6.70;99.90;;;;;;5048974;28;19960;-68
2023/02/21 06:58:45;;;;;;;;;;;6.60;99.90;;;;;;5051252;28;20019;-67
2023/02/21 07:01:11;;;;;;;;;;;6.70;99.90;;;;;;5048784;28;19972;-68
2023/02/21 07:03:41;;;;;;;;;;;6.70;99.90;;;;;;5051114;28;19925;-70
2023/02/21 07:06:08;;;;;;;;;;;6.70;99.90;;;;;;5050757;28;19925;-70
2023/02/21 07:08:35;;;;;;;;;;;6.70;99.90;;;;;;5051555;28;20016;-70
2023/02/21 07:11:02;;;;;;;;;;;6.70;99.90;;;;;;5049713;28;19925;-69
2023/02/21 07:13:29;;;;;;;;;;;6.70;99.90;;;;;;5051676;28;19931;-69
2023/02/21 07:15:55;;;;;;;;;;;6.70;99.90;;;;;;5043668;28;19928;-69
2023/02/21 07:18:22;;;;;;;;;;;6.70;99.90;;;;;;5044411;28;19924;-68
2023/02/21 07:20:50;;;;;;;;;;;6.70;99.90;;;;;;5049428;28;19964;-69
2023/02/21 07:23:17;;;;;;;;;;;6.70;99.90;;;;;;5050398;28;20019;-69
2023/02/21 07:25:44;;;;;;;;;;;6.80;99.90;;;;;;5048027;28;20004;-69
2023/02/21 07:28:10;;;;;;;;;;;6.70;99.90;;;;;;5033002;28;19975;-69
2023/02/21 07:30:37;;;;;;;;;;;6.70;99.90;;;;;;5038874;28;19928;-68
2023/02/21 07:33:04;;;;;;;;;;;6.70;99.90;;;;;;5038088;28;19929;-68
2023/02/21 07:35:31;;;;;;;;;;;6.60;99.90;;;;;;5042521;28;20280;-67
2023/02/21 07:37:59;;;;;;;;;;;6.70;99.90;;;;;;5041121;28;20019;-68
2023/02/21 07:40:26;;;;;;;;;;;6.70;99.90;;;;;;5046790;28;19931;-68
2023/02/21 07:42:55;;;;;;;;;;;6.60;99.90;;;;;;5045547;28;20030;-69
2023/02/21 07:45:22;;;;;;;;;;;6.70;99.90;;;;;;5043917;28;20335;-69
2023/02/21 07:47:52;;;;;;;;;;;6.70;99.90;;;;;;5044809;28;19931;-68
2023/02/21 07:50:19;;;;;;;;;;;6.70;99.90;;;;;;5045081;28;19968;-68
2023/02/21 07:52:46;;;;;;;;;;;6.70;99.90;;;;;;5043407;28;19925;-69
2023/02/21 07:55:14;;;;;;;;;;;6.70;99.90;;;;;;5042321;28;20380;-68
2023/02/21 07:57:41;;;;;;;;;;;6.70;99.90;;;;;;5041612;28;20023;-67
2023/02/21 08:00:08;;;;;;;;;;;6.60;99.90;;;;;;5041799;28;20035;-68
2023/02/21 08:02:35;;;;;;;;;;;6.60;99.90;;;;;;5038690;28;20315;-67
2023/02/21 08:05:02;;;;;;;;;;;6.60;99.90;;;;;;5042063;28;20011;-68
2023/02/21 08:07:29;;;;;;;;;;;6.70;99.90;;;;;;5045165;28;20338;-67
2023/02/21 08:09:57;;;;;;;;;;;6.60;99.90;;;;;;5041769;28;19972;-67
2023/02/21 08:12:26;;;;;;;;;;;6.70;99.90;;;;;;5042243;28;19925;-67
2023/02/21 08:14:52;;;;;;;;;;;6.70;99.90;;;;;;5052204;28;20277;-67
2023/02/21 08:17:19;;;;;;;;;;;6.80;99.90;;;;;;5050348;28;20475;-67
2023/02/21 08:19:46;;;;;;;;;;;6.80;99.90;;;;;;5049078;28;19947;-69
2023/02/21 08:22:12;;;;;;;;;;;6.80;99.90;;;;;;5051189;28;19968;-67
2023/02/21 08:24:39;;;;;;;;;;;6.70;99.90;;;;;;5046896;28;19925;-67
2023/02/21 08:27:06;;;;;;;;;;;6.80;99.90;;;;;;5047057;28;19939;-67
2023/02/21 08:29:34;;;;;;;;;;;6.80;99.90;;;;;;5052891;28;19931;-70
2023/02/21 08:32:01;;;;;;;;;;;6.70;99.90;;;;;;5048628;28;20277;-67
2023/02/21 08:34:29;;;;;;;;;;;6.70;99.90;;;;;;5054383;28;19972;-67
2023/02/21 08:36:55;;;;;;;;;;;6.80;99.90;;;;;;5040668;28;19925;-69
2023/02/21 08:39:22;;;;;;;;;;;6.80;99.90;;;;;;5052799;28;19971;-68
2023/02/21 08:41:51;;;;;;;;;;;6.80;99.90;;;;;;5044694;28;20019;-66
2023/02/21 08:44:20;;;;;;;;;;;6.90;99.90;;;;;;5052645;28;19928;-67
2023/02/21 08:46:48;;;;;;;;;;;6.80;99.90;;;;;;5050430;28;20012;-67
2023/02/21 08:49:15;;;;;;;;;;;6.90;99.90;;;;;;5050179;28;19925;-68
2023/02/21 08:51:42;;;;;;;;;;;6.90;99.90;;;;;;5043164;28;19929;-69
2023/02/21 08:54:09;;;;;;;;;;;7.00;99.90;;;;;;5053578;28;20451;-68
2023/02/21 08:56:35;;;;;;;;;;;7.00;99.90;;;;;;5049513;28;19925;-67
2023/02/21 08:59:03;;;;;;;;;;;7.00;99.90;;;;;;5053685;28;19924;-67
2023/02/21 09:01:34;;;;;;;;;;;7.00;99.90;;;;;;5046250;28;20015;-69
2023/02/21 09:04:03;;;;;;;;;;;7.00;99.90;;;;;;5051582;28;19924;-67
2023/02/21 09:06:30;;;;;;;;;;;7.00;99.90;;;;;;5047838;28;19925;-67
2023/02/21 09:08:56;;;;;;;;;;;7.10;99.90;;;;;;5049053;28;19924;-68
2023/02/21 09:11:23;;;;;;;;;;;7.10;99.90;;;;;;5043310;28;20409;-67
2023/02/21 09:13:51;;;;;;;;;;;7.10;99.90;;;;;;5047776;28;19936;-67
2023/02/21 09:16:18;;;;;;;;;;;7.20;99.90;;;;;;5041049;22;20359;-68
2023/02/21 09:18:52;;;;;;;;;;;7.20;99.90;;;;;;4965315;28;19934;-68
2023/02/21 09:21:21;;;;;;;;;;;7.20;99.90;;;;;;4972495;22;20021;-68
2023/02/21 09:23:47;;;;;;;;;;;7.30;99.90;;;;;;4963739;28;20415;-67
2023/02/21 09:26:14;;;;;;;;;;;7.40;99.90;;;;;;4960816;28;20013;-67
2023/02/21 09:28:42;;;;;;;;;;;7.40;99.90;;;;;;5229000;22;19924;-69
2023/02/21 09:31:12;;;;;;;;;;;7.40;99.90;;;;;;4983721;28;19972;-67
2023/02/21 09:33:39;;;;;;;;;;;7.40;99.90;;;;;;4984432;28;19930;-67
2023/02/21 09:36:07;;;;;;;;;;;7.50;99.90;;;;;;4974424;28;19927;-68
2023/02/21 09:38:35;;;;;;;;;;;7.50;99.90;;;;;;4967680;28;20042;-65
2023/02/21 09:41:03;;;;;;;;;;;7.50;99.90;;;;;;4958124;28;20020;-66
2023/02/21 09:43:34;;;;;;;;;;;7.40;99.90;;;;;;4952907;28;19933;-67
2023/02/21 09:46:03;;;;;;;;;;;7.40;99.90;;;;;;4960456;28;20411;-67
2023/02/21 09:48:30;;;;;;;;;;;7.40;99.90;;;;;;4972827;28;20292;-68
2023/02/21 09:50:58;;;;;;;;;;;7.40;99.90;;;;;;4965573;28;20323;-66
2023/02/21 09:53:26;;;;;;;;;;;7.40;99.90;;;;;;4959031;28;20354;-67
2023/02/21 09:55:57;;;;;;;;;;;7.40;99.90;;;;;;4991619;28;19926;-67
2023/02/21 09:58:24;;;;;;;;;;;7.50;99.90;;;;;;4992747;28;19932;-64
2023/02/21 10:00:51;;;;;;;;;;;7.60;99.90;;;;;;5033301;28;20030;-65
2023/02/21 10:03:30;;;;;;;;;;;7.60;99.90;;;;;;4976090;28;20365;-66
2023/02/21 10:06:01;;;;;;;;;;;7.60;99.90;;;;;;4971584;28;19930;-65
2023/02/21 10:08:36;;;;;;;;;;;7.70;99.90;;;;;;4973735;28;20033;-65
2023/02/21 10:11:10;;;;;;;;;;;7.70;99.90;;;;;;5037309;28;20273;-64
2023/02/21 10:13:39;;;;;;;;;;;7.70;99.90;;;;;;4975035;28;19926;-64
2023/02/21 10:16:11;;;;;;;;;;;7.70;99.90;;;;;;4970594;28;19933;-64
2023/02/21 10:18:40;;;;;;;;;;;7.80;99.90;;;;;;4986194;28;19962;-64
2023/02/21 10:21:12;;;;;;;;;;;7.70;99.90;;;;;;4969992;28;20325;-65
2023/02/21 10:23:40;;;;;;;;;;;7.70;99.90;;;;;;4961916;28;19973;-66
2023/02/21 10:26:09;;;;;;;;;;;7.70;99.90;;;;;;4965685;28;19973;-67
2023/02/21 10:28:36;;;;;;;;;;;7.70;99.90;;;;;;5009724;23;19931;-67
2023/02/21 10:31:07;;;;;;;;;;;7.80;99.90;;;;;;5044033;28;19939;-66
2023/02/21 10:33:35;;;;;;;;;;;7.90;99.90;;;;;;5050774;28;19925;-66
2023/02/21 10:36:02;;;;;;;;;;;7.90;99.90;;;;;;5054479;28;20009;-64
2023/02/21 10:38:29;;;;;;;;;;;7.90;99.90;;;;;;5050892;28;20319;-65
2023/02/21 10:40:56;;;;;;;;;;;7.90;99.90;;;;;;5044991;28;19925;-67
2023/02/21 10:43:28;;;;;;;;;;;7.90;99.90;;;;;;5050157;28;19925;-65
2023/02/21 10:45:57;;;;;;;;;;;7.90;99.90;;;;;;5051829;28;19924;-66
2023/02/21 10:48:25;;;;;;;;;;;7.90;99.90;;;;;;5047700;28;19931;-66
2023/02/21 10:50:52;;;;;;;;;;;7.80;99.90;;;;;;5045377;28;19925;-66
2023/02/21 10:53:24;;;;;;;;;;;7.70;99.90;;;;;;5047970;28;20024;-66
2023/02/21 10:56:06;;;;;;;;;;;7.60;99.90;;;;;;5048682;28;19925;-66
2023/02/21 10:58:35;;;;;;;;;;;7.70;99.90;;;;;;5052095;28;19979;-66
2023/02/21 11:01:11;;;;;;;;;;;7.70;99.90;;;;;;5049427;28;19979;-66
2023/02/21 11:03:43;;;;;;;;;;;7.80;99.90;;;;;;5043254;28;19929;-66
2023/02/21 11:06:10;;;;;;;;;;;7.80;99.90;;;;;;5048521;28;20011;-66
2023/02/21 11:08:38;;;;;;;;;;;7.70;99.90;;;;;;5056692;28;19935;-66
2023/02/21 11:11:05;;;;;;;;;;;7.80;99.90;;;;;;5039443;28;19933;-66
2023/02/21 11:13:35;;;;;;;;;;;7.80;99.90;;;;;;5047959;28;20011;-66
2023/02/21 11:16:09;;;;;;;;;;;7.90;99.90;;;;;;5043721;28;19924;-66
2023/02/21 11:18:36;;;;;;;;;;;7.80;99.90;;;;;;5044144;28;19931;-66
2023/02/21 11:21:10;;;;;;;;;;;7.70;99.90;;;;;;5046966;28;20020;-65
2023/02/21 11:23:37;;;;;;;;;;;7.70;99.90;;;;;;5049681;28;19960;-66
2023/02/21 11:26:08;;;;;;;;;;;7.80;99.90;;;;;;5046059;28;20035;-65
2023/02/21 11:28:38;;;;;;;;;;;7.80;99.90;;;;;;5044836;28;19939;-69
2023/02/21 11:31:07;;;;;;;;;;;7.90;99.90;;;;;;5068156;22;19932;-69
2023/02/21 11:33:36;;;;;;;;;;;7.80;99.90;;;;;;4978644;28;20017;-69
2023/02/21 11:36:08;;;;;;;;;;;7.80;99.90;;;;;;4972199;28;19927;-67
2023/02/21 11:38:37;;;;;;;;;;;7.80;99.90;;;;;;4959271;28;19933;-68
2023/02/21 11:41:14;;;;;;;;;;;7.80;99.90;;;;;;4966256;28;19940;-69
2023/02/21 11:43:46;;;;;;;;;;;7.80;99.90;;;;;;4983134;22;20021;-69
2023/02/21 11:46:16;;;;;;;;;;;7.80;99.90;;;;;;4949792;28;20035;-69
2023/02/21 11:48:47;;;;;;;;;;;7.90;99.90;;;;;;4929712;28;19946;-68
2023/02/21 11:51:18;;;;;;;;;;;7.90;99.90;;;;;;4943635;28;20013;-68
2023/02/21 11:53:44;;;;;;;;;;;7.90;99.90;;;;;;4947285;28;20009;-69
2023/02/21 11:56:17;;;;;;;;;;;7.90;99.90;;;;;;4965191;28;20037;-69
2023/02/21 11:58:51;;;;;;;;;;;7.90;99.90;;;;;;4944401;28;20136;-68
2023/02/21 12:01:21;;;;;;;;;;;7.80;99.90;;;;;;4945450;28;20017;-69
2023/02/21 12:03:54;;;;;;;;;;;7.80;99.90;;;;;;4942037;28;20637;-69
2023/02/21 12:06:27;;;;;;;;;;;7.90;99.90;;;;;;4940640;29;19927;-68
2023/02/21 12:08:56;;;;;;;;;;;7.80;99.90;;;;;;4950286;28;19926;-68
2023/02/21 12:11:29;;;;;;;;;;;7.90;99.90;;;;;;4956062;28;20301;-67
2023/02/21 12:14:03;;;;;;;;;;;7.90;99.90;;;;;;4950068;29;19927;-68
2023/02/21 12:16:35;;;;;;;;;;;7.90;99.90;;;;;;4950672;29;19926;-68
2023/02/21 12:19:09;;;;;;;;;;;8.00;99.90;;;;;;4959749;28;19927;-69
2023/02/21 12:21:49;;;;;;;;;;;8.10;99.90;;;;;;4940251;28;19926;-67
2023/02/21 12:24:26;;;;;;;;;;;8.10;99.90;;;;;;4949326;29;20016;-69
2023/02/21 12:26:56;;;;;;;;;;;8.10;99.90;;;;;;4951730;28;19998;-69
2023/02/21 12:29:40;;;;;;;;;;;8.00;99.90;;;;;;4950669;28;20017;-67
2023/02/21 12:32:24;;;;;;;;;;;7.80;99.90;;;;;;4948095;28;20076;-68
2023/02/21 12:34:59;;;;;;;;;;;8.00;99.90;;;;;;4954206;28;20017;-69
2023/02/21 12:37:28;;;;;;;;;;;8.00;99.90;;;;;;4961471;28;20017;-69
2023/02/21 12:40:03;;;;;;;;;;;8.10;99.90;;;;;;4947748;28;20381;-68
2023/02/21 12:42:49;;;;;;;;;;;8.10;99.90;;;;;;4948718;28;19933;-67
2023/02/21 12:45:29;;;;;;;;;;;8.30;99.90;;;;;;4946746;28;20382;-69
2023/02/21 12:47:58;;;;;;;;;;;8.30;99.90;;;;;;4951588;28;20446;-69
2023/02/21 12:50:27;;;;;;;;;;;8.20;99.90;;;;;;4944083;28;20358;-68
2023/02/21 12:53:01;;;;;;;;;;;8.30;99.90;;;;;;4949619;28;20033;-67
2023/02/21 12:55:32;;;;;;;;;;;8.30;99.90;;;;;;4955492;28;19969;-68
2023/02/21 12:58:01;;;;;;;;;;;8.30;99.90;;;;;;4964519;28;19925;-68
2023/02/21 13:00:31;;;;;;;;;;;8.30;99.90;;;;;;4980868;28;19962;-68
2023/02/21 13:03:01;;;;;;;;;;;8.40;99.90;;;;;;4950616;28;19969;-69
2023/02/21 13:05:32;;;;;;;;;;;8.40;99.90;;;;;;4954059;28;19926;-69
2023/02/21 13:08:01;;;;;;;;;;;8.50;99.90;;;;;;4952078;28;19966;-67
2023/02/21 13:10:31;;;;;;;;;;;8.50;99.90;;;;;;4952092;28;19961;-68
2023/02/21 13:13:00;;;;;;;;;;;8.60;99.90;;;;;;4949741;28;19926;-67
2023/02/21 13:15:27;;;;;;;;;;;8.60;99.90;;;;;;4953801;28;19927;-69
2023/02/21 13:17:58;;;;;;;;;;;8.60;99.90;;;;;;4950581;28;19984;-69
2023/02/21 13:20:27;;;;;;;;;;;8.60;99.90;;;;;;4955522;28;19957;-69
2023/02/21 13:22:55;;;;;;;;;;;8.70;99.90;;;;;;4947533;28;19978;-68
2023/02/21 13:25:26;;;;;;;;;;;8.70;99.90;;;;;;4949089;29;20389;-69
2023/02/21 13:27:57;;;;;;;;;;;8.60;99.90;;;;;;4947496;28;19926;-69
2023/02/21 13:30:27;;;;;;;;;;;8.60;99.90;;;;;;4950651;28;20394;-68
2023/02/21 13:32:55;;;;;;;;;;;8.60;99.90;;;;;;4960661;28;20003;-67
2023/02/21 13:35:27;;;;;;;;;;;8.70;99.90;;;;;;4948371;28;19927;-68
2023/02/21 13:37:54;;;;;;;;;;;8.80;99.90;;;;;;4947519;29;20317;-68
2023/02/21 13:40:23;;;;;;;;;;;8.80;99.90;;;;;;4972261;28;19934;-68
2023/02/21 13:42:59;;;;;;;;;;;8.70;99.90;;;;;;4953905;28;19980;-69
2023/02/21 13:45:27;;;;;;;;;;;8.70;99.90;;;;;;4951019;29;20009;-68
2023/02/21 13:48:23;;;;;;;;;;;8.80;99.90;;;;;;4959645;28;20006;-68
2023/02/21 13:50:51;;;;;;;;;;;8.80;99.90;;;;;;4972353;28;20017;-68
2023/02/21 13:53:19;;;;;;;;;;;8.90;99.90;;;;;;4956839;28;19926;-67
2023/02/21 13:56:07;;;;;;;;;;;9.00;99.90;;;;;;4952709;29;20296;-68
2023/02/21 13:58:35;;;;;;;;;;;9.00;99.90;;;;;;4956279;28;19974;-67
2023/02/21 14:01:16;;;;;;;;;;;8.90;99.90;;;;;;4949845;29;19930;-68
2023/02/21 14:03:44;;;;;;;;;;;9.00;99.90;;;;;;4950394;28;19941;-67
2023/02/21 14:06:24;;;;;;;;;;;9.00;99.90;;;;;;4951596;29;19927;-68
2023/02/21 14:08:55;;;;;;;;;;;9.00;99.90;;;;;;4954915;28;20009;-66
2023/02/21 14:11:23;;;;;;;;;;;9.00;99.90;;;;;;4946741;28;19933;-66
2023/02/21 14:13:51;;;;;;;;;;;9.00;99.90;;;;;;4941046;28;19937;-67
2023/02/21 14:16:21;;;;;;;;;;;9.00;99.90;;;;;;4964034;28;19926;-67
2023/02/21 14:18:49;;;;;;;;;;;8.90;99.90;;;;;;4951878;29;19938;-66
2023/02/21 14:21:24;;;;;;;;;;;8.90;99.90;;;;;;4943947;28;20142;-67
2023/02/21 14:23:54;;;;;;;;;;;9.00;99.90;;;;;;4950924;28;19933;-67
2023/02/21 14:26:35;;;;;;;;;;;9.00;99.90;;;;;;4938993;28;19926;-67
2023/02/21 14:29:10;;;;;;;;;;;9.10;99.90;;;;;;4963649;28;19948;-66
2023/02/21 14:31:47;;;;;;;;;;;9.00;99.90;;;;;;4953183;28;19925;-65
2023/02/21 14:34:14;;;;;;;;;;;9.00;99.90;;;;;;4950856;29;20416;-66
2023/02/21 14:36:42;;;;;;;;;;;9.10;99.90;;;;;;4951561;29;19949;-66
2023/02/21 14:39:11;;;;;;;;;;;9.10;99.90;;;;;;4951140;29;19977;-66
2023/02/21 14:41:43;;;;;;;;;;;9.10;99.90;;;;;;4954210;28;19975;-67
2023/02/21 14:44:17;;;;;;;;;;;9.10;99.90;;;;;;4950276;28;20029;-67
2023/02/21 14:47:11;;;;;;;;;;;9.10;99.90;;;;;;4951718;29;19933;-66
2023/02/21 14:49:43;;;;;;;;;;;9.10;99.90;;;;;;4958564;28;19933;-67
2023/02/21 14:52:28;;;;;;;;;;;9.10;99.90;;;;;;4940843;28;20336;-69
2023/02/21 14:55:13;;;;;;;;;;;8.90;99.90;;;;;;4948006;28;20399;-65
2023/02/21 14:57:52;;;;;;;;;;;8.90;99.90;;;;;;4957570;28;19925;-66
2023/02/21 15:00:22;;;;;;;;;;;8.90;99.90;;;;;;4951000;28;19926;-67
2023/02/21 15:02:52;;;;;;;;;;;9.00;99.90;;;;;;4951546;29;19988;-66
2023/02/21 15:05:20;;;;;;;;;;;9.00;99.90;;;;;;4951986;29;20068;-66
2023/02/21 15:07:55;;;;;;;;;;;8.90;99.90;;;;;;4933053;29;19981;-66
2023/02/21 15:10:23;;;;;;;;;;;8.90;99.90;;;;;;4966437;28;19930;-67
2023/02/21 15:12:52;;;;;;;;;;;8.80;99.90;;;;;;4998075;28;20029;-68
2023/02/21 15:15:21;;;;;;;;;;;8.80;99.90;;;;;;4992573;28;19925;-66
2023/02/21 15:18:14;;;;;;;;;;;8.70;99.90;;;;;;4943586;28;20009;-67
2023/02/21 15:20:42;;;;;;;;;;;8.80;99.90;;;;;;4973103;28;19933;-67
2023/02/21 15:23:12;;;;;;;;;;;8.70;99.90;;;;;;4950265;28;19927;-67
2023/02/21 15:25:39;;;;;;;;;;;8.70;99.90;;;;;;4945833;28;19927;-67
2023/02/21 15:28:18;;;;;;;;;;;8.70;99.90;;;;;;4949002;28;20017;-66
2023/02/21 15:30:57;;;;;;;;;;;8.70;99.90;;;;;;4951011;29;20420;-67
2023/02/21 15:33:26;;;;;;;;;;;8.70;99.90;;;;;;4948888;28;19927;-67
2023/02/21 15:35:54;;;;;;;;;;;8.60;99.90;;;;;;4948492;28;19945;-68
2023/02/21 15:38:23;;;;;;;;;;;8.60;99.90;;;;;;4949520;28;20033;-67
2023/02/21 15:40:50;;;;;;;;;;;8.60;99.90;;;;;;4946367;28;19935;-67
2023/02/21 15:43:24;;;;;;;;;;;8.60;99.90;;;;;;4948208;28;19932;-68
2023/02/21 15:45:52;;;;;;;;;;;8.60;99.90;;;;;;4949353;28;20297;-68
2023/02/21 15:48:18;;;;;;;;;;;8.50;99.90;;;;;;4947519;28;19933;-67
2023/02/21 15:50:46;;;;;;;;;;;8.50;99.90;;;;;;4963064;28;19933;-68
2023/02/21 15:53:14;;;;;;;;;;;8.50;99.90;;;;;;4944671;28;19973;-68
2023/02/21 15:55:42;;;;;;;;;;;8.30;99.90;;;;;;4946037;28;20463;-68
2023/02/21 15:58:13;;;;;;;;;;;8.40;99.90;;;;;;4950845;28;19926;-68
2023/02/21 16:00:42;;;;;;;;;;;8.50;99.90;;;;;;4973621;28;20016;-69
2023/02/21 16:03:42;;;;;;;;;;;8.50;99.90;;;;;;4962264;28;19981;-68
2023/02/21 16:06:18;;;;;;;;;;;8.50;99.90;;;;;;4915645;28;19970;-68
2023/02/21 16:08:58;;;;;;;;;;;8.50;99.90;;;;;;4893100;28;19927;-67
2023/02/21 16:11:26;;;;;;;;;;;8.50;99.90;;;;;;4918357;28;19931;-69
2023/02/21 16:13:53;;;;;;;;;;;8.50;99.90;;;;;;4960822;28;20408;-68
2023/02/21 16:16:21;;;;;;;;;;;8.50;99.90;;;;;;4946696;28;19938;-68
2023/02/21 16:18:54;;;;;;;;;;;8.50;99.90;;;;;;4948369;29;19927;-68
2023/02/21 16:21:22;;;;;;;;;;;8.50;99.90;;;;;;4946934;28;19934;-67
2023/02/21 16:23:48;;;;;;;;;;;8.50;99.90;;;;;;4956172;28;20445;-67
2023/02/21 16:26:23;;;;;;;;;;;8.40;99.90;;;;;;4948235;28;19930;-67
2023/02/21 16:28:50;;;;;;;;;;;8.40;99.90;;;;;;4952508;28;19926;-67
2023/02/21 16:31:27;;;;;;;;;;;8.40;99.90;;;;;;4973004;28;20381;-68
2023/02/21 16:33:55;;;;;;;;;;;8.30;99.90;;;;;;4963986;28;20009;-67
2023/02/21 16:36:23;;;;;;;;;;;8.30;99.90;;;;;;4953966;29;20021;-67
2023/02/21 16:38:50;;;;;;;;;;;8.30;99.90;;;;;;4949296;28;19926;-67
2023/02/21 16:41:17;;;;;;;;;;;8.30;99.90;;;;;;4952972;29;19980;-67
2023/02/21 16:43:43;;;;;;;;;;;8.30;99.90;;;;;;4953225;29;19980;-67
2023/02/21 16:46:10;;;;;;;;;;;8.30;99.90;;;;;;4951977;29;19926;-67
2023/02/21 16:48:37;;;;;;;;;;;8.30;99.90;;;;;;4980057;28;20019;-67
2023/02/21 16:51:07;;;;;;;;;;;8.20;99.90;;;;;;4996369;28;20292;-67
2023/02/21 16:53:34;;;;;;;;;;;8.20;99.90;;;;;;4954046;28;19932;-67
2023/02/21 16:56:02;;;;;;;;;;;8.20;99.90;;;;;;4955158;28;19932;-67
2023/02/21 16:58:30;;;;;;;;;;;8.20;99.90;;;;;;4960295;28;19935;-67
2023/02/21 17:00:57;;;;;;;;;;;8.20;99.90;;;;;;4963131;28;19936;-68
2023/02/21 17:03:24;;;;;;;;;;;8.10;99.90;;;;;;4960807;28;19926;-67